Time;durP1;ratioP1;P1;durP2;ratioP2;P2;SDS_P1;SDS_P2;PMS_P1;PMS_P2;Temp;Humidity;BMP_temperature;BMP_pressure;BME280_temperature;BME280_humidity;BME280_pressure;Samples;Min_cycle;Max_cycle;Signal;HPM_P1;HPM_P2
2022/01/10 00:01:42;;;;;;;8.23;2.20;;;;;;;-145.69;100.00;72459.16;5053867;28;20641;-76
2022/01/10 00:04:10;;;;;;;3.93;1.83;;;;;;;-145.69;100.00;72453.19;5053772;28;20202;-76
2022/01/10 00:06:36;;;;;;;4.30;2.00;;;;;;;-145.69;100.00;72465.13;5053918;28;20207;-76
2022/01/10 00:09:03;;;;;;;4.97;2.00;;;;;;;-145.69;100.00;72457.16;5073435;28;20297;-76
2022/01/10 00:11:30;;;;;;;4.77;2.00;;;;;;;-145.69;100.00;72475.06;5073765;28;20233;-76
2022/01/10 00:13:56;;;;;;;4.27;2.20;;;;;;;-145.69;100.00;72496.97;5073326;28;20729;-76
2022/01/10 00:16:23;;;;;;;5.37;2.00;;;;;;;-145.69;100.00;72498.97;5073600;28;20248;-76
2022/01/10 00:18:50;;;;;;;3.87;1.93;;;;;;;-145.69;100.00;72500.94;5073319;28;20210;-76
2022/01/10 00:21:17;;;;;;;6.70;2.27;;;;;;;-145.69;100.00;72500.94;5073605;28;20539;-75
2022/01/10 00:23:44;;;;;;;7.30;2.33;;;;;;;-145.69;100.00;72489.00;5073428;28;20206;-76
2022/01/10 00:26:10;;;;;;;4.93;3.07;;;;;;;-145.69;100.00;72489.00;5073314;28;20226;-76
2022/01/10 00:28:37;;;;;;;6.03;2.43;;;;;;;-145.69;100.00;72485.03;5072750;28;20203;-77
2022/01/10 00:31:03;;;;;;;5.53;2.13;;;;;;;-145.69;100.00;72494.97;5073389;28;20561;-76
2022/01/10 00:33:30;;;;;;;6.50;2.00;;;;;;;-145.69;100.00;72493.00;5073176;28;20222;-76
2022/01/10 00:35:59;;;;;;;6.80;2.27;;;;;;;-145.69;100.00;72508.91;5073569;28;20257;-77
2022/01/10 00:38:27;;;;;;;6.67;2.60;;;;;;;-145.69;100.00;72498.97;5073155;28;20566;-76
2022/01/10 00:40:53;;;;;;;4.00;1.70;;;;;;;-145.69;100.00;72520.84;5073245;28;20217;-76
2022/01/10 00:43:31;;;;;;;4.03;2.47;;;;;;;-145.69;100.00;72524.84;5073146;28;20233;-77
2022/01/10 00:45:57;;;;;;;9.47;2.83;;;;;;;-145.69;100.00;72544.75;5073281;28;20191;-77
2022/01/10 00:48:24;;;;;;;6.67;2.00;;;;;;;-145.69;100.00;72568.63;5059089;28;20312;-76
2022/01/10 00:50:51;;;;;;;4.90;2.30;;;;;;;-145.69;100.00;72584.56;5073534;28;20221;-76
2022/01/10 00:53:17;;;;;;;5.83;2.07;;;;;;;-145.69;100.00;72604.44;5073135;28;20227;-76
2022/01/10 00:55:50;;;;;;;6.10;2.23;;;;;;;-145.69;100.00;72632.31;5073155;28;20210;-76
2022/01/10 00:58:17;;;;;;;5.00;2.87;;;;;;;-145.69;100.00;72660.19;5073148;28;20194;-76
2022/01/10 01:00:43;;;;;;;4.30;2.60;;;;;;;-145.69;100.00;72674.13;5072922;28;20305;-76
2022/01/10 01:03:10;;;;;;;4.53;2.33;;;;;;;-145.69;100.00;72690.03;5073205;28;20194;-76
2022/01/10 01:05:40;;;;;;;5.63;2.47;;;;;;;-145.69;100.00;72709.94;5073270;28;20206;-76
2022/01/10 01:08:08;;;;;;;4.73;2.40;;;;;;;-145.69;100.00;72727.88;5073023;28;20203;-76
2022/01/10 01:13:31;;;;;;;6.93;2.23;;;;;;;-145.69;100.00;72759.72;5061958;28;20372;-76
2022/01/10 01:16:14;;;;;;;6.23;2.13;;;;;;;-145.69;100.00;72775.63;5073171;28;20198;-76
2022/01/10 01:24:08;;;;;;;6.60;2.40;;;;;;;-145.69;100.00;72787.56;5072799;28;20731;-76
2022/01/10 01:26:37;;;;;;;3.43;2.07;;;;;;;-145.69;100.00;72801.50;5072937;28;20198;-76
2022/01/10 01:29:08;;;;;;;5.83;2.07;;;;;;;-145.69;100.00;72815.44;5072925;28;20199;-76
2022/01/10 01:31:35;;;;;;;10.07;2.90;;;;;;;-145.69;100.00;72807.47;5072647;28;20281;-76
2022/01/10 01:34:01;;;;;;;12.18;4.40;;;;;;;-145.69;100.00;72809.47;5071314;28;20466;-76
2022/01/10 01:36:30;;;;;;;7.67;3.03;;;;;;;-145.69;100.00;72811.47;5072791;28;20199;-76
2022/01/10 01:38:57;;;;;;;6.97;3.60;;;;;;;-145.69;100.00;72817.44;5072805;28;20329;-76
2022/01/10 01:41:36;;;;;;;9.17;3.23;;;;;;;-145.69;100.00;72809.47;5073766;28;20231;-76
2022/01/10 01:44:04;;;;;;;12.67;3.57;;;;;;;-145.69;100.00;72791.56;5076331;28;20222;-76
2022/01/10 01:46:36;;;;;;;10.70;4.07;;;;;;;-145.69;100.00;72781.59;5076214;28;20203;-76
2022/01/10 01:49:03;;;;;;;8.30;3.60;;;;;;;-145.69;100.00;72783.59;5075819;28;20195;-75
2022/01/10 01:51:30;;;;;;;11.13;3.57;;;;;;;-145.69;100.00;72787.56;5076432;28;20248;-76
2022/01/10 01:53:59;;;;;;;5.47;3.17;;;;;;;-145.69;100.00;72787.56;5075986;28;20234;-76
2022/01/10 01:56:25;;;;;;;7.80;2.73;;;;;;;-145.69;100.00;72779.63;5076153;28;20199;-75
2022/01/10 01:58:55;;;;;;;10.60;3.60;;;;;;;-145.69;100.00;72771.66;5075929;28;20248;-76
2022/01/10 02:01:25;;;;;;;7.13;2.90;;;;;;;-145.69;100.00;72769.66;5076210;28;20275;-75
2022/01/10 02:03:53;;;;;;;6.47;3.33;;;;;;;-145.69;100.00;72757.72;5075992;28;20209;-75
2022/01/10 02:06:22;;;;;;;7.07;3.20;;;;;;;-145.69;100.00;72755.72;5075324;28;20224;-75
2022/01/10 02:08:49;;;;;;;8.20;2.80;;;;;;;-145.69;100.00;72743.78;5075800;28;20662;-75
2022/01/10 02:11:16;;;;;;;6.77;2.83;;;;;;;-145.69;100.00;72751.75;5075921;28;20195;-76
2022/01/10 02:13:44;;;;;;;6.10;2.60;;;;;;;-145.69;100.00;72733.84;5074799;28;20230;-75
2022/01/10 02:16:15;;;;;;;5.83;2.80;;;;;;;-145.69;100.00;72735.81;5075801;28;20195;-76
2022/01/10 02:18:42;;;;;;;5.43;2.57;;;;;;;-145.69;100.00;72727.88;5075534;28;20191;-76
2022/01/10 02:21:10;;;;;;;13.50;3.23;;;;;;;-145.69;100.00;72713.94;5075730;28;20248;-76
2022/01/10 02:23:37;;;;;;;7.20;2.73;;;;;;;-145.69;100.00;72713.94;5075541;28;20222;-75
2022/01/10 02:26:04;;;;;;;7.10;3.07;;;;;;;-145.69;100.00;72707.97;5075157;28;20256;-76
2022/01/10 02:28:32;;;;;;;9.70;3.17;;;;;;;-145.69;100.00;72701.97;5075333;28;20199;-76
2022/01/10 02:30:58;;;;;;;6.60;3.07;;;;;;;-145.69;100.00;72694.03;5075543;28;20293;-76
2022/01/10 02:33:27;;;;;;;4.90;2.33;;;;;;;-145.69;100.00;72692.03;5075320;28;20222;-76
2022/01/10 02:36:02;;;;;;;6.67;2.90;;;;;;;-145.69;100.00;72692.03;5075469;28;20206;-76
2022/01/10 02:38:30;;;;;;;10.27;3.67;;;;;;;-145.69;100.00;72703.97;5074247;28;20504;-75
2022/01/10 02:40:58;;;;;;;7.10;2.27;;;;;;;-145.69;100.00;72698.00;5075169;28;20545;-75
2022/01/10 02:43:24;;;;;;;8.07;2.63;;;;;;;-145.69;100.00;72701.97;5075337;28;20242;-76
2022/01/10 02:45:55;;;;;;;6.10;2.63;;;;;;;-145.69;100.00;72709.94;5069703;28;20203;-76
2022/01/10 02:48:21;;;;;;;4.50;2.03;;;;;;;-145.69;100.00;72707.97;5058904;28;20328;-75
2022/01/10 02:50:48;;;;;;;9.80;2.20;;;;;;;-145.69;100.00;72713.94;5074886;28;20199;-75
2022/01/10 02:53:14;;;;;;;8.53;2.83;;;;;;;-145.69;100.00;72717.91;5074299;28;20226;-75
2022/01/10 02:55:42;;;;;;;6.00;2.30;;;;;;;-145.69;100.00;72725.88;5075368;28;20229;-75
2022/01/10 02:58:08;;;;;;;5.00;2.20;;;;;;;-145.69;100.00;72723.88;5074996;28;20201;-75
2022/01/10 03:00:35;;;;;;;5.67;2.53;;;;;;;-145.69;100.00;72723.88;5074995;28;20202;-75
2022/01/10 03:03:06;;;;;;;8.20;2.40;;;;;;;-145.69;100.00;72719.91;5074938;28;20195;-75
2022/01/10 03:05:33;;;;;;;4.80;2.13;;;;;;;-145.69;100.00;72725.88;5074776;28;20249;-75
2022/01/10 03:08:02;;;;;;;4.00;1.97;;;;;;;-145.69;100.00;72717.91;5074759;28;20203;-76
2022/01/10 03:10:29;;;;;;;4.43;2.33;;;;;;;-145.69;100.00;72719.91;5074383;28;20191;-75
2022/01/10 03:12:57;;;;;;;5.13;2.40;;;;;;;-145.69;100.00;72727.88;5074673;28;20199;-75
2022/01/10 03:15:24;;;;;;;3.77;2.13;;;;;;;-145.69;100.00;72715.91;5074554;28;20597;-76
2022/01/10 03:17:50;;;;;;;7.00;2.53;;;;;;;-145.69;100.00;72723.88;5074301;28;20202;-75
2022/01/10 03:20:17;;;;;;;8.90;2.60;;;;;;;-145.69;100.00;72719.91;5074313;28;20195;-76
2022/01/10 03:22:43;;;;;;;8.87;2.77;;;;;;;-145.69;100.00;72727.88;5074677;28;20214;-76
2022/01/10 03:25:10;;;;;;;6.90;2.63;;;;;;;-145.69;100.00;72725.88;5073889;28;20434;-75
2022/01/10 03:27:37;;;;;;;7.37;2.50;;;;;;;-145.69;100.00;72735.81;5074571;28;20557;-76
2022/01/10 03:30:06;;;;;;;4.27;1.87;;;;;;;-145.69;100.00;72739.81;5074431;28;20210;-75
2022/01/10 03:32:33;;;;;;;2.77;1.87;;;;;;;-145.69;100.00;72739.81;5074188;28;20209;-75
2022/01/10 03:34:59;;;;;;;4.47;2.33;;;;;;;-145.69;100.00;72731.84;5074218;28;20229;-75
2022/01/10 03:37:25;;;;;;;5.17;1.73;;;;;;;-145.69;100.00;72729.84;5074171;28;20206;-76
2022/01/10 03:39:52;;;;;;;5.33;1.87;;;;;;;-145.69;100.00;72727.88;5073975;28;20198;-75
2022/01/10 03:42:19;;;;;;;5.97;1.80;;;;;;;-145.69;100.00;72735.81;5073976;28;20234;-75
2022/01/10 03:44:45;;;;;;;5.77;1.70;;;;;;;-145.69;100.00;72763.69;5073920;28;20210;-75
2022/01/10 03:47:13;;;;;;;3.57;1.50;;;;;;;-145.69;100.00;72787.56;5073943;28;20202;-75
2022/01/10 03:49:40;;;;;;;3.30;1.33;;;;;;;-145.69;100.00;72797.53;5073839;28;20669;-76
2022/01/10 03:52:07;;;;;;;3.17;1.70;;;;;;;-145.69;100.00;72797.53;5073854;28;20198;-76
2022/01/10 03:54:33;;;;;;;4.73;1.87;;;;;;;-145.69;100.00;72779.63;5073583;28;20755;-76
2022/01/10 03:57:00;;;;;;;7.37;2.10;;;;;;;-145.69;100.00;72773.66;5073785;28;20199;-75
2022/01/10 03:59:27;;;;;;;6.03;1.90;;;;;;;-145.69;100.00;72767.69;5073764;28;20252;-76
2022/01/10 04:01:53;;;;;;;6.70;1.90;;;;;;;-145.69;100.00;72769.66;5073805;28;20206;-76
2022/01/10 04:04:21;;;;;;;4.03;2.00;;;;;;;-145.69;100.00;72787.56;5072957;28;20289;-76
2022/01/10 04:06:48;;;;;;;3.83;1.97;;;;;;;-145.69;100.00;72791.56;5073750;28;20194;-75
2022/01/10 04:09:14;;;;;;;4.50;1.97;;;;;;;-145.69;100.00;72783.59;5073327;28;20531;-76
2022/01/10 04:11:41;;;;;;;2.67;1.63;;;;;;;-145.69;100.00;72789.56;5073685;28;20198;-75
2022/01/10 04:14:07;;;;;;;5.77;1.80;;;;;;;-145.69;100.00;72801.50;5073428;28;20609;-76
2022/01/10 04:16:34;;;;;;;2.50;1.60;;;;;;;-145.69;100.00;72811.47;5073737;28;20206;-75
2022/01/10 04:19:00;;;;;;;2.67;1.43;;;;;;;-145.69;100.00;72823.41;5073740;28;20205;-75
2022/01/10 04:21:28;;;;;;;6.33;1.70;;;;;;;-145.69;100.00;72815.44;5073667;28;20253;-76
2022/01/10 04:23:54;;;;;;;4.03;1.30;;;;;;;-145.69;100.00;72807.47;5073317;28;20657;-76
2022/01/10 04:26:21;;;;;;;4.47;1.87;;;;;;;-145.69;100.00;72807.47;5073325;28;20207;-76
2022/01/10 04:28:47;;;;;;;3.80;1.70;;;;;;;-145.69;100.00;72797.53;5073123;28;20225;-75
2022/01/10 04:31:14;;;;;;;6.40;1.80;;;;;;;-145.69;100.00;72783.59;5073173;28;20206;-76
2022/01/10 04:33:40;;;;;;;4.70;1.73;;;;;;;-145.69;100.00;72779.63;5073278;28;20229;-75
2022/01/10 04:36:07;;;;;;;4.60;1.40;;;;;;;-145.69;100.00;72775.63;5073416;28;20275;-75
2022/01/10 04:38:36;;;;;;;5.77;1.50;;;;;;;-145.69;100.00;72763.69;5057368;28;20206;-75
2022/01/10 04:41:02;;;;;;;2.77;1.33;;;;;;;-145.69;100.00;72751.75;5068402;28;20549;-76
2022/01/10 04:43:29;;;;;;;4.23;1.37;;;;;;;-145.69;100.00;72753.75;5073252;28;20202;-76
2022/01/10 04:45:55;;;;;;;8.10;1.40;;;;;;;-145.69;100.00;72743.78;5072939;28;20714;-76
2022/01/10 04:48:22;;;;;;;4.73;1.30;;;;;;;-145.69;100.00;72773.66;5073365;28;20198;-76
2022/01/10 04:51:11;;;;;;;2.97;1.40;;;;;;;-145.69;100.00;72773.66;5073174;28;20203;-76
2022/01/10 04:53:39;;;;;;;4.90;1.37;;;;;;;-145.69;100.00;72769.66;5072990;28;20293;-76
2022/01/10 04:56:06;;;;;;;6.57;1.60;;;;;;;-145.69;100.00;72763.69;5072949;28;20202;-76
2022/01/10 04:58:35;;;;;;;2.23;1.27;;;;;;;-145.69;100.00;72763.69;5073162;28;20207;-76
2022/01/10 05:01:03;;;;;;;2.37;1.37;;;;;;;-145.69;100.00;72767.69;5073248;28;20199;-76
2022/01/10 05:03:30;;;;;;;3.60;1.50;;;;;;;-145.69;100.00;72767.69;5072891;28;20241;-76
2022/01/10 05:05:57;;;;;;;2.50;1.67;;;;;;;-145.69;100.00;72775.63;5073119;28;20203;-76
2022/01/10 05:08:24;;;;;;;2.07;1.23;;;;;;;-145.69;100.00;72779.63;5072921;28;20199;-76
2022/01/10 05:10:52;;;;;;;1.47;1.00;;;;;;;-145.69;100.00;72789.56;5072892;28;20662;-76
2022/01/10 05:13:20;;;;;;;7.80;1.40;;;;;;;-145.69;100.00;72791.56;5072909;28;20201;-76
2022/01/10 05:15:47;;;;;;;6.67;1.20;;;;;;;-145.69;100.00;72809.47;5074730;28;20226;-76
2022/01/10 05:18:14;;;;;;;2.10;1.40;;;;;;;-145.69;100.00;72803.50;5077070;28;20195;-76
2022/01/10 05:20:41;;;;;;;3.73;1.37;;;;;;;-145.69;100.00;72795.53;5077057;28;20675;-76
2022/01/10 05:23:08;;;;;;;3.80;1.10;;;;;;;-145.69;100.00;72787.56;5076762;28;20256;-76
2022/01/10 05:25:36;;;;;;;1.63;1.40;;;;;;;-145.69;100.00;72789.56;5076771;28;20207;-76
2022/01/10 05:28:05;;;;;;;3.23;1.40;;;;;;;-145.69;100.00;72793.56;5076726;28;20195;-75
2022/01/10 05:30:32;;;;;;;2.37;1.40;;;;;;;-145.69;100.00;72791.56;5076601;28;20260;-76
2022/01/10 05:32:58;;;;;;;2.97;1.20;;;;;;;-145.69;100.00;72797.53;5076637;28;20210;-76
2022/01/10 05:35:25;;;;;;;4.93;1.13;;;;;;;-145.69;100.00;72799.53;5075848;28;20228;-76
2022/01/10 05:37:52;;;;;;;2.13;1.03;;;;;;;-145.69;100.00;72789.56;5076340;28;20202;-76
2022/01/10 05:40:19;;;;;;;4.30;1.47;;;;;;;-145.69;100.00;72775.63;5076703;28;20195;-76
2022/01/10 05:42:45;;;;;;;4.70;1.30;;;;;;;-145.69;100.00;72779.63;5076158;28;20740;-76
2022/01/10 05:45:13;;;;;;;1.40;1.10;;;;;;;-145.69;100.00;72799.53;5076273;28;20260;-76
2022/01/10 05:47:42;;;;;;;3.37;1.13;;;;;;;-145.69;100.00;72799.53;5076051;28;20256;-76
2022/01/10 05:50:10;;;;;;;1.10;1.00;;;;;;;-145.69;100.00;72803.50;5076117;28;20615;-76
2022/01/10 05:52:37;;;;;;;4.87;1.50;;;;;;;-145.69;100.00;72811.47;5076248;28;20290;-76
2022/01/10 05:55:04;;;;;;;1.97;1.20;;;;;;;-145.69;100.00;72807.47;5076024;28;20230;-76
2022/01/10 05:57:31;;;;;;;2.23;1.07;;;;;;;-145.69;100.00;72807.47;5075967;28;20668;-76
2022/01/10 05:59:58;;;;;;;4.60;1.00;;;;;;;-145.69;100.00;72811.47;5076190;28;20215;-76
2022/01/10 06:02:25;;;;;;;3.90;0.90;;;;;;;-145.69;100.00;72815.44;5075926;28;20195;-76
2022/01/10 06:04:52;;;;;;;2.93;0.97;;;;;;;-145.69;100.00;72815.44;5075332;28;20256;-76
2022/01/10 06:07:18;;;;;;;5.33;1.30;;;;;;;-145.69;100.00;72825.41;5075918;28;20277;-76
2022/01/10 06:09:45;;;;;;;5.23;1.30;;;;;;;-145.69;100.00;72823.41;5075722;28;20202;-76
2022/01/10 06:12:11;;;;;;;4.87;1.37;;;;;;;-145.69;100.00;72819.44;5075923;28;20202;-76
2022/01/10 06:14:38;;;;;;;2.20;1.17;;;;;;;-145.69;100.00;72833.38;5075781;28;20231;-76
2022/01/10 06:17:05;;;;;;;2.10;1.33;;;;;;;-145.69;100.00;72835.34;5075443;28;20616;-76
2022/01/10 06:19:32;;;;;;;9.73;2.00;;;;;;;-145.69;100.00;72847.28;5075748;28;20194;-76
2022/01/10 06:21:59;;;;;;;11.20;2.00;;;;;;;-145.69;100.00;72859.25;5075780;28;20202;-76
2022/01/10 06:24:27;;;;;;;4.97;1.73;;;;;;;-145.69;100.00;72861.22;5075771;28;20217;-76
2022/01/10 06:26:53;;;;;;;3.83;1.40;;;;;;;-145.69;100.00;72865.22;5074598;28;20628;-76
2022/01/10 06:29:20;;;;;;;5.03;1.93;;;;;;;-145.69;100.00;72873.19;5075473;28;20569;-76
2022/01/10 06:31:46;;;;;;;8.07;1.97;;;;;;;-145.69;100.00;72875.16;5075116;28;20270;-75
2022/01/10 06:34:13;;;;;;;8.90;2.20;;;;;;;-145.69;100.00;72873.19;5075442;28;20203;-76
2022/01/10 06:36:41;;;;;;;5.67;2.10;;;;;;;-145.69;100.00;72875.16;5075019;28;20202;-76
2022/01/10 06:39:07;;;;;;;6.37;1.67;;;;;;;-145.69;100.00;72875.16;5075458;28;20202;-76
2022/01/10 06:41:34;;;;;;;8.40;1.57;;;;;;;-145.69;100.00;72879.16;5074911;28;20233;-76
2022/01/10 06:44:00;;;;;;;5.37;1.40;;;;;;;-145.69;100.00;72875.16;5075310;28;20198;-76
2022/01/10 06:46:27;;;;;;;4.33;1.50;;;;;;;-145.69;100.00;72879.16;5061667;28;20230;-76
2022/01/10 06:48:53;;;;;;;2.83;1.23;;;;;;;-145.69;100.00;72881.13;5055137;28;20207;-76
2022/01/10 06:51:19;;;;;;;3.97;1.80;;;;;;;-145.69;100.00;72887.09;5055185;28;20200;-76
2022/01/10 06:53:47;;;;;;;3.30;1.30;;;;;;;-145.69;100.00;72893.09;5055146;28;20204;-76
2022/01/10 06:56:14;;;;;;;7.00;1.73;;;;;;;-145.69;100.00;72889.09;5054955;28;20277;-76
2022/01/10 06:58:40;;;;;;;11.43;1.90;;;;;;;-145.69;100.00;72889.09;5054929;28;20535;-76
2022/01/10 07:01:08;;;;;;;6.33;1.60;;;;;;;-145.69;100.00;72891.09;5054806;28;20208;-76
2022/01/10 07:03:34;;;;;;;4.40;1.43;;;;;;;-145.69;100.00;72899.06;5054864;28;20200;-76
2022/01/10 07:06:06;;;;;;;6.20;1.70;;;;;;;-145.69;100.00;72897.06;5055249;28;20204;-76
2022/01/10 07:08:32;;;;;;;10.90;1.87;;;;;;;-145.69;100.00;72899.06;5054849;28;20202;-76
2022/01/10 07:11:00;;;;;;;5.03;1.70;;;;;;;-145.69;100.00;72907.00;5056162;28;20203;-76
2022/01/10 07:13:26;;;;;;;6.73;1.50;;;;;;;-145.69;100.00;72907.00;5074464;28;20236;-75
2022/01/10 07:15:53;;;;;;;5.73;1.60;;;;;;;-145.69;100.00;72911.00;5074230;28;20237;-75
2022/01/10 07:18:19;;;;;;;5.80;2.00;;;;;;;-145.69;100.00;72907.00;5074538;28;20651;-76
2022/01/10 07:20:46;;;;;;;7.70;1.50;;;;;;;-145.69;100.00;72911.00;5074470;28;20206;-76
2022/01/10 07:23:12;;;;;;;2.70;1.07;;;;;;;-145.69;100.00;72907.00;5074312;28;20654;-76
2022/01/10 07:25:39;;;;;;;2.67;1.50;;;;;;;-145.69;100.00;72901.03;5074345;28;20199;-76
2022/01/10 07:28:07;;;;;;;9.47;1.97;;;;;;;-145.69;100.00;72911.00;5074295;28;20229;-75
2022/01/10 07:30:33;;;;;;;4.70;1.98;;;;;;;-145.69;100.00;72903.03;5074012;28;20445;-75
2022/01/10 07:33:00;;;;;;;5.00;1.80;;;;;;;-145.69;100.00;72909.00;5074374;28;20202;-75
2022/01/10 07:35:27;;;;;;;7.50;2.00;;;;;;;-145.69;100.00;72901.03;5074161;28;20283;-75
2022/01/10 07:37:53;;;;;;;7.83;2.53;;;;;;;-145.69;100.00;72899.06;5074154;28;20198;-76
2022/01/10 07:40:20;;;;;;;3.17;2.10;;;;;;;-145.69;100.00;72899.06;5073885;28;20206;-76
2022/01/10 07:42:46;;;;;;;3.70;1.60;;;;;;;-145.69;100.00;72903.03;5073731;28;20586;-76
2022/01/10 07:45:14;;;;;;;2.90;1.20;;;;;;;-145.69;100.00;72899.06;5073692;28;20554;-75
2022/01/10 07:47:41;;;;;;;2.90;1.00;;;;;;;-145.69;100.00;72903.03;5073794;28;20590;-76
2022/01/10 07:50:08;;;;;;;6.50;1.60;;;;;;;-145.69;100.00;72905.03;5073913;28;20289;-76
2022/01/10 07:52:35;;;;;;;5.23;1.30;;;;;;;-145.69;100.00;72899.06;5073844;28;20201;-76
2022/01/10 07:55:03;;;;;;;1.87;1.40;;;;;;;-145.69;100.00;72893.09;5073389;28;20685;-76
2022/01/10 07:57:29;;;;;;;6.60;1.70;;;;;;;-145.69;100.00;72879.16;5073636;28;20237;-76
2022/01/10 07:59:55;;;;;;;6.47;2.00;;;;;;;-145.69;100.00;72867.19;5073875;28;20260;-75
2022/01/10 08:02:24;;;;;;;12.87;2.90;;;;;;;-145.69;100.00;72883.13;5073611;28;20662;-76
2022/01/10 08:04:50;;;;;;;16.10;3.30;;;;;;;-145.69;100.00;72895.06;5073469;28;20684;-76
2022/01/10 08:07:17;;;;;;;8.53;2.80;;;;;;;-145.69;100.00;72893.09;5073428;28;20672;-75
2022/01/10 08:09:44;;;;;;;6.17;1.97;;;;;;;-145.69;100.00;72871.19;5073367;28;20206;-75
2022/01/10 08:12:10;;;;;;;7.77;1.83;;;;;;;-145.69;100.00;72859.25;5073100;28;20664;-76
2022/01/10 08:14:37;;;;;;;8.30;2.03;;;;;;;-145.69;100.00;72839.34;5073448;28;20207;-76
2022/01/10 08:17:04;;;;;;;9.97;2.43;;;;;;;-145.69;100.00;72833.38;5073579;28;20237;-75
2022/01/10 08:19:33;;;;;;;8.07;2.63;;;;;;;-145.69;100.00;72831.38;5073425;28;20205;-76
2022/01/10 08:22:00;;;;;;;7.33;2.20;;;;;;;-145.69;100.00;72819.44;5073296;28;20199;-75
2022/01/10 08:24:28;;;;;;;7.83;2.50;;;;;;;-145.69;100.00;72823.41;5073115;28;20657;-75
2022/01/10 08:26:54;;;;;;;7.90;1.83;;;;;;;-145.69;100.00;72833.38;5073329;28;20252;-76
2022/01/10 08:29:21;;;;;;;7.13;2.00;;;;;;;-145.69;100.00;72861.22;5073397;28;20206;-76
2022/01/10 08:31:48;;;;;;;5.53;1.80;;;;;;;-145.69;100.00;72865.22;5073299;28;20199;-76
2022/01/10 08:34:15;;;;;;;8.60;2.50;;;;;;;-145.69;100.00;72867.19;5073249;28;20233;-76
2022/01/10 08:36:43;;;;;;;8.13;2.43;;;;;;;-145.69;100.00;72879.16;5072991;28;20226;-76
2022/01/10 08:39:10;;;;;;;5.40;2.10;;;;;;;-145.69;100.00;72863.22;5073045;28;20578;-76
2022/01/10 08:41:38;;;;;;;9.23;2.40;;;;;;;-145.69;100.00;72845.31;5072911;28;20272;-76
2022/01/10 08:44:06;;;;;;;5.53;2.50;;;;;;;-145.69;100.00;72819.44;5073194;28;20565;-76
2022/01/10 08:46:33;;;;;;;4.27;2.43;;;;;;;-145.69;100.00;72815.44;5056573;28;20570;-76
2022/01/10 08:49:00;;;;;;;10.67;3.13;;;;;;;-145.69;100.00;72793.56;5052857;28;20673;-76
2022/01/10 08:51:27;;;;;;;7.50;3.90;;;;;;;-145.69;100.00;72789.56;5052414;28;20282;-75
2022/01/10 08:53:55;;;;;;;8.27;4.40;;;;;;;-145.69;100.00;72783.59;5052980;28;20200;-74
2022/01/10 08:56:22;;;;;;;12.60;4.70;;;;;;;-145.69;100.00;72763.69;5052768;28;20721;-75
2022/01/10 08:58:48;;;;;;;13.00;4.43;;;;;;;-145.69;100.00;72759.72;5052823;28;20650;-75
2022/01/10 09:01:15;;;;;;;10.83;4.53;;;;;;;-145.69;100.00;72761.69;5052965;28;20229;-75
2022/01/10 09:03:41;;;;;;;9.60;5.00;;;;;;;-145.69;100.00;72747.78;5052784;28;20290;-76
2022/01/10 09:06:08;;;;;;;16.57;5.83;;;;;;;-145.69;100.00;72727.88;5052726;28;20677;-75
2022/01/10 09:08:41;;;;;;;18.47;6.50;;;;;;;-145.69;100.00;72759.72;5052859;28;20207;-75
2022/01/10 09:11:09;;;;;;;12.23;5.00;;;;;;;-145.69;100.00;72765.69;5061897;28;20561;-76
2022/01/10 09:13:35;;;;;;;5.87;3.20;;;;;;;-145.69;100.00;72737.81;5072584;28;20221;-75
2022/01/10 09:16:02;;;;;;;10.87;4.43;;;;;;;-145.69;100.00;72767.69;5072659;28;20725;-75
2022/01/10 09:18:29;;;;;;;11.73;4.40;;;;;;;-145.69;100.00;72753.75;5072709;28;20236;-75
2022/01/10 09:20:55;;;;;;;10.93;5.27;;;;;;;-145.69;100.00;72759.72;5072848;28;20198;-75
2022/01/10 09:23:22;;;;;;;15.90;4.57;;;;;;;-145.69;100.00;72747.78;5072486;28;20676;-75
2022/01/10 09:25:49;;;;;;;7.67;3.30;;;;;;;-145.69;100.00;72731.84;5072562;28;20198;-75
2022/01/10 09:28:17;;;;;;;15.43;3.13;;;;;;;-145.69;100.00;72743.78;5066457;28;20249;-75
2022/01/10 09:30:43;;;;;;;10.57;3.20;;;;;;;-145.69;100.00;72751.75;5052532;28;20200;-75
2022/01/10 09:33:10;;;;;;;6.07;3.13;;;;;;;-145.69;100.00;72775.63;5052399;28;20235;-76
2022/01/10 09:35:37;;;;;;;10.07;3.10;;;;;;;-145.69;100.00;72753.75;5052653;28;20677;-76
2022/01/10 09:38:04;;;;;;;12.50;3.50;;;;;;;-145.69;100.00;72777.63;5052686;28;20199;-76
2022/01/10 09:40:33;;;;;;;5.97;2.80;;;;;;;-145.69;100.00;72755.72;5059469;28;20226;-76
2022/01/10 09:43:01;;;;;;;5.63;3.17;;;;;;;-145.69;100.00;72737.81;5072267;28;20261;-75
2022/01/10 09:45:34;;;;;;;6.27;2.70;;;;;;;-145.69;100.00;72727.88;5072180;28;20203;-74
2022/01/10 09:48:01;;;;;;;6.23;2.77;;;;;;;-145.69;100.00;72763.69;5072553;28;20290;-76
2022/01/10 09:50:28;;;;;;;11.67;3.13;;;;;;;-145.69;100.00;72805.50;5072483;28;20210;-75
2022/01/10 09:52:54;;;;;;;5.27;3.00;;;;;;;-145.69;100.00;72819.44;5072384;28;20282;-76
2022/01/10 09:55:21;;;;;;;6.97;3.10;;;;;;;-145.69;100.00;72831.38;5072152;28;20250;-75
2022/01/10 09:57:50;;;;;;;7.73;3.07;;;;;;;-145.69;100.00;72825.41;5072144;28;20198;-76
2022/01/10 10:00:20;;;;;;;8.80;3.40;;;;;;;-145.69;100.00;72841.31;5072037;28;20210;-75
2022/01/10 10:02:49;;;;;;;8.70;3.33;;;;;;;-145.69;100.00;72831.38;5073870;28;20202;-76
2022/01/10 10:05:16;;;;;;;6.87;3.33;;;;;;;-145.69;100.00;72809.47;5075741;28;20203;-75
2022/01/10 10:07:43;;;;;;;11.30;3.40;;;;;;;-145.69;100.00;72799.53;5075918;28;20571;-76
2022/01/10 10:10:13;;;;;;;8.63;3.07;;;;;;;-145.69;100.00;72791.56;5075772;28;20194;-75
2022/01/10 10:12:41;;;;;;;8.37;2.90;;;;;;;-145.69;100.00;72803.50;5075762;28;20195;-76
2022/01/10 10:15:10;;;;;;;11.80;2.83;;;;;;;-145.69;100.00;72773.66;5075916;28;20634;-76
2022/01/10 10:17:38;;;;;;;7.37;3.23;;;;;;;-145.69;100.00;72759.72;5075935;28;20229;-76
2022/01/10 10:20:11;;;;;;;8.90;3.33;;;;;;;-145.69;100.00;72747.78;5075664;28;20602;-74
2022/01/10 10:22:40;;;;;;;5.20;3.03;;;;;;;-145.69;100.00;72751.75;5075872;28;20203;-75
2022/01/10 10:25:07;;;;;;;4.70;2.70;;;;;;;-145.69;99.11;72783.59;5075344;28;20195;-76
2022/01/10 10:27:37;;;;;;;5.73;2.83;;;;;;;-145.69;99.34;72739.81;5075715;28;20203;-75
2022/01/10 10:30:05;;;;;;;8.70;2.87;;;;;;;-145.69;98.65;72717.91;5075667;28;20222;-76
2022/01/10 10:32:32;;;;;;;13.47;3.07;;;;;;;-145.69;98.05;72711.94;5075622;28;20198;-76
2022/01/10 10:34:58;;;;;;;8.37;2.80;;;;;;;-145.69;96.96;72676.09;5075369;28;20207;-76
2022/01/10 10:37:28;;;;;;;5.03;2.57;;;;;;;-145.69;95.75;72626.34;5075317;28;20227;-76
2022/01/10 10:39:56;;;;;;;5.67;2.83;;;;;;;-145.69;93.81;72578.56;5075213;28;20260;-76
2022/01/10 10:42:28;;;;;;;9.27;2.90;;;;;;;-145.69;91.56;72570.63;5075034;28;20321;-75
2022/01/10 10:44:55;;;;;;;7.37;3.03;;;;;;;-145.69;90.02;72568.63;5073780;28;20226;-76
2022/01/10 10:47:28;;;;;;;6.57;2.50;;;;;;;-145.69;90.53;72612.41;5057232;28;20213;-75
2022/01/10 10:49:59;;;;;;;14.07;5.33;;;;;;;-145.69;98.53;72715.91;5055058;28;20257;-76
2022/01/10 10:52:33;;;;;;;13.80;6.53;;;;;;;-145.69;100.00;72755.72;5055226;28;20281;-75
2022/01/10 10:55:05;;;;;;;21.50;8.57;;;;;;;-145.69;100.00;72811.47;5055162;28;20203;-75
2022/01/10 10:57:33;;;;;;;18.97;7.37;;;;;;;-145.69;100.00;72823.41;5054741;28;20265;-76
2022/01/10 11:00:01;;;;;;;20.60;7.93;;;;;;;-145.69;100.00;72823.41;5054473;28;20677;-76
2022/01/10 11:02:28;;;;;;;16.63;6.83;;;;;;;-145.69;100.00;72825.41;5062635;28;20199;-75
2022/01/10 11:04:55;;;;;;;19.73;8.17;;;;;;;-145.69;100.00;72841.31;5061649;28;20201;-76
2022/01/10 11:07:24;;;;;;;14.33;7.37;;;;;;;-145.69;100.00;72747.78;5074662;28;20199;-78
2022/01/10 11:09:52;;;;;;;18.37;7.77;;;;;;;-145.69;100.00;72624.34;5074872;28;20688;-76
2022/01/10 11:12:22;;;;;;;17.37;6.30;;;;;;;-145.69;92.37;72568.63;5074838;28;20198;-76
2022/01/10 11:14:50;;;;;;;10.40;4.73;;;;;;;-145.69;94.23;72652.22;5074825;28;20209;-77
2022/01/10 11:17:17;;;;;;;11.60;5.43;;;;;;;-145.69;94.76;72620.38;5073399;28;20231;-75
2022/01/10 11:19:44;;;;;;;18.17;8.60;;;;;;;-145.69;100.00;72719.91;5054127;28;20290;-76